sensor_id;sensor_type;location;lat;lon;timestamp;P1;durP1;ratioP1;P2;durP2;ratioP2
80707;SDS011;70222;49.204;-122.940;2023-07-31T00:00:08;2.63;;;2.03;;
80707;SDS011;70222;49.204;-122.940;2023-07-31T00:02:35;2.30;;;1.70;;
80707;SDS011;70222;49.204;-122.940;2023-07-31T00:05:01;2.45;;;1.70;;
80707;SDS011;70222;49.204;-122.940;2023-07-31T00:07:27;3.47;;;1.85;;
80707;SDS011;70222;49.204;-122.940;2023-07-31T00:09:53;4.10;;;1.90;;
80707;SDS011;70222;49.204;-122.940;2023-07-31T00:12:21;3.42;;;1.92;;
80707;SDS011;70222;49.204;-122.940;2023-07-31T00:14:48;2.03;;;1.52;;
80707;SDS011;70222;49.204;-122.940;2023-07-31T00:17:14;2.70;;;2.00;;
80707;SDS011;70222;49.204;-122.940;2023-07-31T00:19:43;2.40;;;1.80;;
80707;SDS011;70222;49.204;-122.940;2023-07-31T00:22:11;2.38;;;1.80;;
80707;SDS011;70222;49.204;-122.940;2023-07-31T00:27:03;2.40;;;1.75;;
80707;SDS011;70222;49.204;-122.940;2023-07-31T00:29:30;2.17;;;1.58;;
80707;SDS011;70222;49.204;-122.940;2023-07-31T00:31:56;2.83;;;1.80;;
80707;SDS011;70222;49.204;-122.940;2023-07-31T00:34:22;2.40;;;1.80;;
80707;SDS011;70222;49.204;-122.940;2023-07-31T00:36:48;2.03;;;1.50;;
80707;SDS011;70222;49.204;-122.940;2023-07-31T00:39:14;2.15;;;1.88;;
80707;SDS011;70222;49.204;-122.940;2023-07-31T00:41:40;4.35;;;2.45;;
80707;SDS011;70222;49.204;-122.940;2023-07-31T00:44:06;2.40;;;1.60;;
80707;SDS011;70222;49.204;-122.940;2023-07-31T00:46:32;2.72;;;1.88;;
80707;SDS011;70222;49.204;-122.940;2023-07-31T00:48:59;5.25;;;1.70;;
80707;SDS011;70222;49.204;-122.940;2023-07-31T00:51:25;2.30;;;1.67;;
80707;SDS011;70222;49.204;-122.940;2023-07-31T00:53:51;2.72;;;1.80;;
80707;SDS011;70222;49.204;-122.940;2023-07-31T00:56:22;3.00;;;1.80;;
80707;SDS011;70222;49.204;-122.940;2023-07-31T00:58:49;2.35;;;1.50;;
80707;SDS011;70222;49.204;-122.940;2023-07-31T01:01:15;2.20;;;1.80;;
80707;SDS011;70222;49.204;-122.940;2023-07-31T01:03:41;2.10;;;1.60;;
80707;SDS011;70222;49.204;-122.940;2023-07-31T01:11:31;2.45;;;1.60;;
80707;SDS011;70222;49.204;-122.940;2023-07-31T01:14:00;2.35;;;1.60;;
80707;SDS011;70222;49.204;-122.940;2023-07-31T01:16:26;2.47;;;1.80;;
80707;SDS011;70222;49.204;-122.940;2023-07-31T01:18:53;3.03;;;1.83;;
80707;SDS011;70222;49.204;-122.940;2023-07-31T01:23:57;2.80;;;1.80;;
80707;SDS011;70222;49.204;-122.940;2023-07-31T01:26:49;2.75;;;1.73;;
80707;SDS011;70222;49.204;-122.940;2023-07-31T01:32:25;2.30;;;1.60;;
80707;SDS011;70222;49.204;-122.940;2023-07-31T01:34:52;2.78;;;1.70;;
80707;SDS011;70222;49.204;-122.940;2023-07-31T01:37:19;3.05;;;1.90;;
80707;SDS011;70222;49.204;-122.940;2023-07-31T01:39:45;2.67;;;1.70;;
80707;SDS011;70222;49.204;-122.940;2023-07-31T01:42:11;2.10;;;1.70;;
80707;SDS011;70222;49.204;-122.940;2023-07-31T01:44:37;2.40;;;1.90;;
80707;SDS011;70222;49.204;-122.940;2023-07-31T01:47:04;2.80;;;1.95;;
80707;SDS011;70222;49.204;-122.940;2023-07-31T01:49:31;3.35;;;2.40;;
80707;SDS011;70222;49.204;-122.940;2023-07-31T01:51:58;3.00;;;1.77;;
80707;SDS011;70222;49.204;-122.940;2023-07-31T01:54:24;3.13;;;2.10;;
80707;SDS011;70222;49.204;-122.940;2023-07-31T01:56:50;2.50;;;1.80;;
80707;SDS011;70222;49.204;-122.940;2023-07-31T01:59:16;3.10;;;1.95;;
80707;SDS011;70222;49.204;-122.940;2023-07-31T02:01:42;2.85;;;1.63;;
80707;SDS011;70222;49.204;-122.940;2023-07-31T02:04:08;2.72;;;2.00;;
80707;SDS011;70222;49.204;-122.940;2023-07-31T02:06:35;2.35;;;1.65;;
80707;SDS011;70222;49.204;-122.940;2023-07-31T02:09:05;2.33;;;1.70;;
80707;SDS011;70222;49.204;-122.940;2023-07-31T02:11:31;2.05;;;1.67;;
80707;SDS011;70222;49.204;-122.940;2023-07-31T02:13:57;3.30;;;2.00;;
80707;SDS011;70222;49.204;-122.940;2023-07-31T02:16:24;2.80;;;1.60;;
80707;SDS011;70222;49.204;-122.940;2023-07-31T02:18:50;3.22;;;1.90;;
80707;SDS011;70222;49.204;-122.940;2023-07-31T02:21:16;1.95;;;1.52;;
80707;SDS011;70222;49.204;-122.940;2023-07-31T02:23:42;3.92;;;2.22;;
80707;SDS011;70222;49.204;-122.940;2023-07-31T02:26:08;2.92;;;1.75;;
80707;SDS011;70222;49.204;-122.940;2023-07-31T02:28:34;3.25;;;1.90;;
80707;SDS011;70222;49.204;-122.940;2023-07-31T02:31:00;2.65;;;1.70;;
80707;SDS011;70222;49.204;-122.940;2023-07-31T02:33:26;3.20;;;1.90;;
80707;SDS011;70222;49.204;-122.940;2023-07-31T02:35:52;2.90;;;2.10;;
80707;SDS011;70222;49.204;-122.940;2023-07-31T02:38:19;2.88;;;2.15;;
80707;SDS011;70222;49.204;-122.940;2023-07-31T02:40:45;2.63;;;1.65;;
80707;SDS011;70222;49.204;-122.940;2023-07-31T02:43:13;2.70;;;1.65;;
80707;SDS011;70222;49.204;-122.940;2023-07-31T02:45:39;2.65;;;1.90;;
80707;SDS011;70222;49.204;-122.940;2023-07-31T02:48:05;2.92;;;1.73;;
80707;SDS011;70222;49.204;-122.940;2023-07-31T02:50:32;3.13;;;2.30;;
80707;SDS011;70222;49.204;-122.940;2023-07-31T02:52:58;2.22;;;1.63;;
80707;SDS011;70222;49.204;-122.940;2023-07-31T02:55:25;3.53;;;1.80;;
80707;SDS011;70222;49.204;-122.940;2023-07-31T02:57:51;3.75;;;2.25;;
80707;SDS011;70222;49.204;-122.940;2023-07-31T03:00:17;2.67;;;1.70;;
80707;SDS011;70222;49.204;-122.940;2023-07-31T03:02:44;3.45;;;2.10;;
80707;SDS011;70222;49.204;-122.940;2023-07-31T03:05:10;2.75;;;1.90;;
80707;SDS011;70222;49.204;-122.940;2023-07-31T03:07:36;2.88;;;1.83;;
80707;SDS011;70222;49.204;-122.940;2023-07-31T03:10:02;2.92;;;1.80;;
80707;SDS011;70222;49.204;-122.940;2023-07-31T03:12:28;3.35;;;2.00;;
80707;SDS011;70222;49.204;-122.940;2023-07-31T03:14:55;3.05;;;1.70;;
80707;SDS011;70222;49.204;-122.940;2023-07-31T03:17:21;2.25;;;1.73;;
80707;SDS011;70222;49.204;-122.940;2023-07-31T03:19:47;2.97;;;2.10;;
80707;SDS011;70222;49.204;-122.940;2023-07-31T03:22:13;2.40;;;1.90;;
80707;SDS011;70222;49.204;-122.940;2023-07-31T03:24:39;3.63;;;1.88;;
80707;SDS011;70222;49.204;-122.940;2023-07-31T03:27:05;2.63;;;1.90;;
80707;SDS011;70222;49.204;-122.940;2023-07-31T03:29:31;3.03;;;1.77;;
80707;SDS011;70222;49.204;-122.940;2023-07-31T03:31:58;2.97;;;2.20;;
80707;SDS011;70222;49.204;-122.940;2023-07-31T03:34:24;2.40;;;1.70;;
80707;SDS011;70222;49.204;-122.940;2023-07-31T03:36:50;3.28;;;1.75;;
80707;SDS011;70222;49.204;-122.940;2023-07-31T03:39:16;2.75;;;1.98;;
80707;SDS011;70222;49.204;-122.940;2023-07-31T03:41:43;2.83;;;1.83;;
80707;SDS011;70222;49.204;-122.940;2023-07-31T03:47:32;3.50;;;2.17;;
80707;SDS011;70222;49.204;-122.940;2023-07-31T03:49:58;3.90;;;1.70;;
80707;SDS011;70222;49.204;-122.940;2023-07-31T03:52:24;3.25;;;1.90;;
80707;SDS011;70222;49.204;-122.940;2023-07-31T03:54:50;3.35;;;1.90;;
80707;SDS011;70222;49.204;-122.940;2023-07-31T03:57:16;3.00;;;1.80;;
80707;SDS011;70222;49.204;-122.940;2023-07-31T03:59:42;3.55;;;1.90;;
80707;SDS011;70222;49.204;-122.940;2023-07-31T04:02:08;2.97;;;2.22;;
80707;SDS011;70222;49.204;-122.940;2023-07-31T04:04:34;3.35;;;2.40;;
80707;SDS011;70222;49.204;-122.940;2023-07-31T04:07:00;2.53;;;1.85;;
80707;SDS011;70222;49.204;-122.940;2023-07-31T04:09:26;3.33;;;1.90;;
80707;SDS011;70222;49.204;-122.940;2023-07-31T04:11:52;2.75;;;1.90;;
80707;SDS011;70222;49.204;-122.940;2023-07-31T04:17:40;2.60;;;1.70;;
80707;SDS011;70222;49.204;-122.940;2023-07-31T04:20:06;2.45;;;1.70;;
80707;SDS011;70222;49.204;-122.940;2023-07-31T04:22:33;2.95;;;1.80;;
80707;SDS011;70222;49.204;-122.940;2023-07-31T04:24:59;2.53;;;1.80;;
80707;SDS011;70222;49.204;-122.940;2023-07-31T04:27:25;4.28;;;2.00;;
80707;SDS011;70222;49.204;-122.940;2023-07-31T04:29:51;3.33;;;1.73;;
80707;SDS011;70222;49.204;-122.940;2023-07-31T04:32:17;3.38;;;1.70;;
80707;SDS011;70222;49.204;-122.940;2023-07-31T04:34:46;3.08;;;1.73;;
80707;SDS011;70222;49.204;-122.940;2023-07-31T04:37:12;3.97;;;2.22;;
80707;SDS011;70222;49.204;-122.940;2023-07-31T04:39:39;4.43;;;1.95;;
80707;SDS011;70222;49.204;-122.940;2023-07-31T04:42:05;3.50;;;1.77;;
80707;SDS011;70222;49.204;-122.940;2023-07-31T04:44:31;3.95;;;1.88;;
80707;SDS011;70222;49.204;-122.940;2023-07-31T04:46:57;3.00;;;1.98;;
80707;SDS011;70222;49.204;-122.940;2023-07-31T04:49:23;3.63;;;2.28;;
80707;SDS011;70222;49.204;-122.940;2023-07-31T04:51:49;3.33;;;1.80;;
80707;SDS011;70222;49.204;-122.940;2023-07-31T04:54:15;3.63;;;1.80;;
80707;SDS011;70222;49.204;-122.940;2023-07-31T04:56:42;3.60;;;1.75;;
80707;SDS011;70222;49.204;-122.940;2023-07-31T04:59:08;2.70;;;1.70;;
80707;SDS011;70222;49.204;-122.940;2023-07-31T05:01:34;3.97;;;1.90;;
80707;SDS011;70222;49.204;-122.940;2023-07-31T05:07:22;3.13;;;1.75;;
80707;SDS011;70222;49.204;-122.940;2023-07-31T05:09:48;2.33;;;1.92;;
80707;SDS011;70222;49.204;-122.940;2023-07-31T05:12:14;2.60;;;1.63;;
80707;SDS011;70222;49.204;-122.940;2023-07-31T05:14:40;3.25;;;1.98;;
80707;SDS011;70222;49.204;-122.940;2023-07-31T05:17:06;6.50;;;2.55;;
80707;SDS011;70222;49.204;-122.940;2023-07-31T05:19:32;5.05;;;2.25;;
80707;SDS011;70222;49.204;-122.940;2023-07-31T05:21:59;3.17;;;1.90;;
80707;SDS011;70222;49.204;-122.940;2023-07-31T05:24:25;2.92;;;1.77;;
80707;SDS011;70222;49.204;-122.940;2023-07-31T05:26:51;3.95;;;2.00;;
80707;SDS011;70222;49.204;-122.940;2023-07-31T05:29:17;3.60;;;2.45;;
80707;SDS011;70222;49.204;-122.940;2023-07-31T05:31:43;4.00;;;1.73;;
80707;SDS011;70222;49.204;-122.940;2023-07-31T05:34:09;2.85;;;1.75;;
80707;SDS011;70222;49.204;-122.940;2023-07-31T05:36:35;3.28;;;1.98;;
80707;SDS011;70222;49.204;-122.940;2023-07-31T05:39:01;2.88;;;1.80;;
80707;SDS011;70222;49.204;-122.940;2023-07-31T05:41:31;3.78;;;2.45;;
80707;SDS011;70222;49.204;-122.940;2023-07-31T05:43:57;3.20;;;1.92;;
80707;SDS011;70222;49.204;-122.940;2023-07-31T05:46:23;2.53;;;1.60;;
80707;SDS011;70222;49.204;-122.940;2023-07-31T05:48:50;3.50;;;1.83;;
80707;SDS011;70222;49.204;-122.940;2023-07-31T05:51:16;2.75;;;1.60;;
80707;SDS011;70222;49.204;-122.940;2023-07-31T05:53:42;2.78;;;1.65;;
80707;SDS011;70222;49.204;-122.940;2023-07-31T05:56:08;2.70;;;1.65;;
80707;SDS011;70222;49.204;-122.940;2023-07-31T05:58:35;2.22;;;1.63;;
80707;SDS011;70222;49.204;-122.940;2023-07-31T06:01:01;3.67;;;2.03;;
80707;SDS011;70222;49.204;-122.940;2023-07-31T06:03:27;4.00;;;2.05;;
80707;SDS011;70222;49.204;-122.940;2023-07-31T06:05:53;3.78;;;1.95;;
80707;SDS011;70222;49.204;-122.940;2023-07-31T06:08:19;3.75;;;2.10;;
80707;SDS011;70222;49.204;-122.940;2023-07-31T06:10:45;2.17;;;1.77;;
80707;SDS011;70222;49.204;-122.940;2023-07-31T06:13:11;3.92;;;1.80;;
80707;SDS011;70222;49.204;-122.940;2023-07-31T06:15:37;3.28;;;1.88;;
80707;SDS011;70222;49.204;-122.940;2023-07-31T06:18:03;3.83;;;2.17;;
80707;SDS011;70222;49.204;-122.940;2023-07-31T06:20:33;3.00;;;1.80;;
80707;SDS011;70222;49.204;-122.940;2023-07-31T06:22:59;2.30;;;1.70;;
80707;SDS011;70222;49.204;-122.940;2023-07-31T06:25:25;2.80;;;1.80;;
80707;SDS011;70222;49.204;-122.940;2023-07-31T06:27:52;3.88;;;2.17;;
80707;SDS011;70222;49.204;-122.940;2023-07-31T06:30:18;4.07;;;1.90;;
80707;SDS011;70222;49.204;-122.940;2023-07-31T06:32:47;2.72;;;1.90;;
80707;SDS011;70222;49.204;-122.940;2023-07-31T06:35:13;3.90;;;2.17;;
80707;SDS011;70222;49.204;-122.940;2023-07-31T06:37:39;2.65;;;2.00;;
80707;SDS011;70222;49.204;-122.940;2023-07-31T06:40:06;3.95;;;2.30;;
80707;SDS011;70222;49.204;-122.940;2023-07-31T06:45:56;4.18;;;2.30;;
80707;SDS011;70222;49.204;-122.940;2023-07-31T06:48:22;3.63;;;2.10;;
80707;SDS011;70222;49.204;-122.940;2023-07-31T06:50:49;3.53;;;1.75;;
80707;SDS011;70222;49.204;-122.940;2023-07-31T06:53:16;2.60;;;2.08;;
80707;SDS011;70222;49.204;-122.940;2023-07-31T06:55:42;3.90;;;2.30;;
80707;SDS011;70222;49.204;-122.940;2023-07-31T06:58:08;2.47;;;1.77;;
80707;SDS011;70222;49.204;-122.940;2023-07-31T07:00:34;3.08;;;1.98;;
80707;SDS011;70222;49.204;-122.940;2023-07-31T07:03:00;3.50;;;2.15;;
80707;SDS011;70222;49.204;-122.940;2023-07-31T07:05:26;3.33;;;1.95;;
80707;SDS011;70222;49.204;-122.940;2023-07-31T07:07:52;3.88;;;2.78;;
80707;SDS011;70222;49.204;-122.940;2023-07-31T07:10:18;4.57;;;2.67;;
80707;SDS011;70222;49.204;-122.940;2023-07-31T07:12:45;3.50;;;2.17;;
80707;SDS011;70222;49.204;-122.940;2023-07-31T07:15:11;4.97;;;2.78;;
80707;SDS011;70222;49.204;-122.940;2023-07-31T07:17:37;3.83;;;2.28;;
80707;SDS011;70222;49.204;-122.940;2023-07-31T07:20:04;5.65;;;2.40;;
80707;SDS011;70222;49.204;-122.940;2023-07-31T07:22:30;4.20;;;2.38;;
80707;SDS011;70222;49.204;-122.940;2023-07-31T07:24:56;3.75;;;2.30;;
80707;SDS011;70222;49.204;-122.940;2023-07-31T07:27:22;3.75;;;2.40;;
80707;SDS011;70222;49.204;-122.940;2023-07-31T07:29:51;4.68;;;2.50;;
80707;SDS011;70222;49.204;-122.940;2023-07-31T07:32:18;4.18;;;2.47;;
80707;SDS011;70222;49.204;-122.940;2023-07-31T07:34:44;4.05;;;2.30;;
80707;SDS011;70222;49.204;-122.940;2023-07-31T07:37:11;3.78;;;2.28;;
80707;SDS011;70222;49.204;-122.940;2023-07-31T07:39:40;3.53;;;2.00;;
80707;SDS011;70222;49.204;-122.940;2023-07-31T07:42:06;2.65;;;1.88;;
80707;SDS011;70222;49.204;-122.940;2023-07-31T07:44:32;3.47;;;2.45;;
80707;SDS011;70222;49.204;-122.940;2023-07-31T07:46:59;4.40;;;2.35;;
80707;SDS011;70222;49.204;-122.940;2023-07-31T07:49:25;5.07;;;2.65;;
80707;SDS011;70222;49.204;-122.940;2023-07-31T07:51:51;3.90;;;2.60;;
80707;SDS011;70222;49.204;-122.940;2023-07-31T07:54:17;3.85;;;2.28;;
80707;SDS011;70222;49.204;-122.940;2023-07-31T07:56:44;3.65;;;2.30;;
80707;SDS011;70222;49.204;-122.940;2023-07-31T07:59:10;3.60;;;2.00;;
80707;SDS011;70222;49.204;-122.940;2023-07-31T08:01:36;2.60;;;1.80;;
80707;SDS011;70222;49.204;-122.940;2023-07-31T08:04:02;3.30;;;2.30;;
80707;SDS011;70222;49.204;-122.940;2023-07-31T08:06:29;5.63;;;2.30;;
80707;SDS011;70222;49.204;-122.940;2023-07-31T08:08:58;3.63;;;2.40;;
80707;SDS011;70222;49.204;-122.940;2023-07-31T08:13:50;4.88;;;2.55;;
80707;SDS011;70222;49.204;-122.940;2023-07-31T08:16:16;5.80;;;2.40;;
80707;SDS011;70222;49.204;-122.940;2023-07-31T08:18:43;3.53;;;2.00;;
80707;SDS011;70222;49.204;-122.940;2023-07-31T08:21:09;3.00;;;1.92;;
80707;SDS011;70222;49.204;-122.940;2023-07-31T08:23:36;3.88;;;2.00;;
80707;SDS011;70222;49.204;-122.940;2023-07-31T08:26:02;4.15;;;2.10;;
80707;SDS011;70222;49.204;-122.940;2023-07-31T08:28:28;3.58;;;2.50;;
80707;SDS011;70222;49.204;-122.940;2023-07-31T08:30:54;4.22;;;2.40;;
80707;SDS011;70222;49.204;-122.940;2023-07-31T08:33:20;3.15;;;2.03;;
80707;SDS011;70222;49.204;-122.940;2023-07-31T08:35:46;4.63;;;2.40;;
80707;SDS011;70222;49.204;-122.940;2023-07-31T08:38:13;4.07;;;2.70;;
80707;SDS011;70222;49.204;-122.940;2023-07-31T08:40:40;3.53;;;2.30;;
80707;SDS011;70222;49.204;-122.940;2023-07-31T08:43:07;5.45;;;2.30;;
80707;SDS011;70222;49.204;-122.940;2023-07-31T08:45:34;3.35;;;2.30;;
80707;SDS011;70222;49.204;-122.940;2023-07-31T08:48:00;3.65;;;2.78;;
80707;SDS011;70222;49.204;-122.940;2023-07-31T08:50:26;3.72;;;2.35;;
80707;SDS011;70222;49.204;-122.940;2023-07-31T08:52:53;4.47;;;2.40;;
80707;SDS011;70222;49.204;-122.940;2023-07-31T08:55:19;5.75;;;2.50;;
80707;SDS011;70222;49.204;-122.940;2023-07-31T08:57:50;3.92;;;2.33;;
80707;SDS011;70222;49.204;-122.940;2023-07-31T09:00:20;3.88;;;2.40;;
80707;SDS011;70222;49.204;-122.940;2023-07-31T09:03:09;6.20;;;2.72;;
80707;SDS011;70222;49.204;-122.940;2023-07-31T09:05:35;3.75;;;2.50;;
80707;SDS011;70222;49.204;-122.940;2023-07-31T09:08:02;4.97;;;2.58;;
80707;SDS011;70222;49.204;-122.940;2023-07-31T09:10:30;4.07;;;2.25;;
80707;SDS011;70222;49.204;-122.940;2023-07-31T09:12:56;4.70;;;2.20;;
80707;SDS011;70222;49.204;-122.940;2023-07-31T09:15:23;4.75;;;2.45;;
80707;SDS011;70222;49.204;-122.940;2023-07-31T09:17:54;3.72;;;2.30;;
80707;SDS011;70222;49.204;-122.940;2023-07-31T09:20:26;3.70;;;2.10;;
80707;SDS011;70222;49.204;-122.940;2023-07-31T09:22:52;3.65;;;2.28;;
80707;SDS011;70222;49.204;-122.940;2023-07-31T09:25:20;3.65;;;2.20;;
80707;SDS011;70222;49.204;-122.940;2023-07-31T09:27:51;3.17;;;2.08;;
80707;SDS011;70222;49.204;-122.940;2023-07-31T09:30:22;3.33;;;2.30;;
80707;SDS011;70222;49.204;-122.940;2023-07-31T09:32:49;4.82;;;2.10;;
80707;SDS011;70222;49.204;-122.940;2023-07-31T09:35:20;4.95;;;2.10;;
80707;SDS011;70222;49.204;-122.940;2023-07-31T09:37:51;3.80;;;2.50;;
80707;SDS011;70222;49.204;-122.940;2023-07-31T09:42:58;3.42;;;2.05;;
80707;SDS011;70222;49.204;-122.940;2023-07-31T09:45:25;3.28;;;2.10;;
80707;SDS011;70222;49.204;-122.940;2023-07-31T09:47:52;4.05;;;2.10;;
80707;SDS011;70222;49.204;-122.940;2023-07-31T09:50:19;3.50;;;2.35;;
80707;SDS011;70222;49.204;-122.940;2023-07-31T09:52:47;3.63;;;2.40;;
80707;SDS011;70222;49.204;-122.940;2023-07-31T09:55:13;3.63;;;2.00;;
80707;SDS011;70222;49.204;-122.940;2023-07-31T09:57:40;3.85;;;2.17;;
80707;SDS011;70222;49.204;-122.940;2023-07-31T10:00:08;5.20;;;2.53;;
80707;SDS011;70222;49.204;-122.940;2023-07-31T10:05:01;4.22;;;2.22;;
80707;SDS011;70222;49.204;-122.940;2023-07-31T10:07:28;4.05;;;2.10;;
80707;SDS011;70222;49.204;-122.940;2023-07-31T10:09:59;3.92;;;2.10;;
80707;SDS011;70222;49.204;-122.940;2023-07-31T10:12:26;2.72;;;2.03;;
80707;SDS011;70222;49.204;-122.940;2023-07-31T10:14:55;3.75;;;1.90;;
80707;SDS011;70222;49.204;-122.940;2023-07-31T10:17:25;3.60;;;2.00;;
80707;SDS011;70222;49.204;-122.940;2023-07-31T10:19:52;4.30;;;2.17;;
80707;SDS011;70222;49.204;-122.940;2023-07-31T10:24:45;3.55;;;2.00;;
80707;SDS011;70222;49.204;-122.940;2023-07-31T10:27:12;3.30;;;2.40;;
80707;SDS011;70222;49.204;-122.940;2023-07-31T10:29:38;3.58;;;2.30;;
80707;SDS011;70222;49.204;-122.940;2023-07-31T10:32:06;3.80;;;2.10;;
80707;SDS011;70222;49.204;-122.940;2023-07-31T10:34:35;3.00;;;2.05;;
80707;SDS011;70222;49.204;-122.940;2023-07-31T10:37:21;4.32;;;2.15;;
80707;SDS011;70222;49.204;-122.940;2023-07-31T10:39:58;3.60;;;1.80;;
80707;SDS011;70222;49.204;-122.940;2023-07-31T10:46:07;3.63;;;2.20;;
80707;SDS011;70222;49.204;-122.940;2023-07-31T10:48:35;4.20;;;2.40;;
80707;SDS011;70222;49.204;-122.940;2023-07-31T10:51:06;3.70;;;2.03;;
80707;SDS011;70222;49.204;-122.940;2023-07-31T10:53:34;3.33;;;2.20;;
80707;SDS011;70222;49.204;-122.940;2023-07-31T10:56:00;4.95;;;2.00;;
80707;SDS011;70222;49.204;-122.940;2023-07-31T10:58:27;3.33;;;2.00;;
80707;SDS011;70222;49.204;-122.940;2023-07-31T11:00:57;4.05;;;2.30;;
80707;SDS011;70222;49.204;-122.940;2023-07-31T11:03:25;4.03;;;2.13;;
80707;SDS011;70222;49.204;-122.940;2023-07-31T11:13:29;4.43;;;2.10;;
80707;SDS011;70222;49.204;-122.940;2023-07-31T11:15:56;3.42;;;2.20;;
80707;SDS011;70222;49.204;-122.940;2023-07-31T11:18:23;2.92;;;2.08;;
80707;SDS011;70222;49.204;-122.940;2023-07-31T11:20:49;5.38;;;2.13;;
80707;SDS011;70222;49.204;-122.940;2023-07-31T11:23:16;3.20;;;2.20;;
80707;SDS011;70222;49.204;-122.940;2023-07-31T11:25:43;3.92;;;2.15;;
80707;SDS011;70222;49.204;-122.940;2023-07-31T11:30:37;4.03;;;2.05;;
80707;SDS011;70222;49.204;-122.940;2023-07-31T11:33:04;3.92;;;2.22;;
80707;SDS011;70222;49.204;-122.940;2023-07-31T11:35:44;5.22;;;2.65;;
80707;SDS011;70222;49.204;-122.940;2023-07-31T11:38:30;3.03;;;1.58;;
80707;SDS011;70222;49.204;-122.940;2023-07-31T11:40:58;2.97;;;1.98;;
80707;SDS011;70222;49.204;-122.940;2023-07-31T11:43:27;4.53;;;1.90;;
80707;SDS011;70222;49.204;-122.940;2023-07-31T11:45:54;2.95;;;2.22;;
80707;SDS011;70222;49.204;-122.940;2023-07-31T11:48:26;2.90;;;2.15;;
80707;SDS011;70222;49.204;-122.940;2023-07-31T11:50:58;3.35;;;2.13;;
80707;SDS011;70222;49.204;-122.940;2023-07-31T11:53:44;3.63;;;2.15;;
80707;SDS011;70222;49.204;-122.940;2023-07-31T11:56:15;3.97;;;2.28;;
80707;SDS011;70222;49.204;-122.940;2023-07-31T11:58:43;3.67;;;2.20;;
80707;SDS011;70222;49.204;-122.940;2023-07-31T12:01:18;2.78;;;2.03;;
80707;SDS011;70222;49.204;-122.940;2023-07-31T12:03:46;4.13;;;2.42;;
80707;SDS011;70222;49.204;-122.940;2023-07-31T12:08:38;4.50;;;2.72;;
80707;SDS011;70222;49.204;-122.940;2023-07-31T12:11:05;5.05;;;3.00;;
80707;SDS011;70222;49.204;-122.940;2023-07-31T12:13:32;5.40;;;4.28;;
80707;SDS011;70222;49.204;-122.940;2023-07-31T12:18:29;5.43;;;3.67;;
80707;SDS011;70222;49.204;-122.940;2023-07-31T12:20:59;7.43;;;4.40;;
80707;SDS011;70222;49.204;-122.940;2023-07-31T12:23:26;8.30;;;4.70;;
80707;SDS011;70222;49.204;-122.940;2023-07-31T12:28:29;5.07;;;4.45;;
80707;SDS011;70222;49.204;-122.940;2023-07-31T12:30:59;7.07;;;4.20;;
80707;SDS011;70222;49.204;-122.940;2023-07-31T12:33:35;8.25;;;4.35;;
80707;SDS011;70222;49.204;-122.940;2023-07-31T12:36:04;6.57;;;4.07;;
80707;SDS011;70222;49.204;-122.940;2023-07-31T12:38:37;4.20;;;3.30;;
80707;SDS011;70222;49.204;-122.940;2023-07-31T12:41:03;5.05;;;3.25;;
80707;SDS011;70222;49.204;-122.940;2023-07-31T12:43:32;6.68;;;3.40;;
80707;SDS011;70222;49.204;-122.940;2023-07-31T12:46:01;5.35;;;3.08;;
80707;SDS011;70222;49.204;-122.940;2023-07-31T12:48:27;5.00;;;2.80;;
80707;SDS011;70222;49.204;-122.940;2023-07-31T12:50:53;5.20;;;3.25;;
80707;SDS011;70222;49.204;-122.940;2023-07-31T12:53:19;5.05;;;3.13;;
80707;SDS011;70222;49.204;-122.940;2023-07-31T12:55:46;4.25;;;2.83;;
80707;SDS011;70222;49.204;-122.940;2023-07-31T12:58:12;5.28;;;2.95;;
80707;SDS011;70222;49.204;-122.940;2023-07-31T13:00:38;4.85;;;2.90;;
80707;SDS011;70222;49.204;-122.940;2023-07-31T13:03:04;5.60;;;2.97;;
80707;SDS011;70222;49.204;-122.940;2023-07-31T13:05:30;4.25;;;3.13;;
80707;SDS011;70222;49.204;-122.940;2023-07-31T13:07:56;5.07;;;3.17;;
80707;SDS011;70222;49.204;-122.940;2023-07-31T13:10:23;4.80;;;2.65;;
80707;SDS011;70222;49.204;-122.940;2023-07-31T13:12:49;5.45;;;2.88;;
80707;SDS011;70222;49.204;-122.940;2023-07-31T13:15:15;4.28;;;3.13;;
80707;SDS011;70222;49.204;-122.940;2023-07-31T13:17:41;4.40;;;2.85;;
80707;SDS011;70222;49.204;-122.940;2023-07-31T13:20:08;7.40;;;3.40;;
80707;SDS011;70222;49.204;-122.940;2023-07-31T13:22:34;5.93;;;3.10;;
80707;SDS011;70222;49.204;-122.940;2023-07-31T13:25:00;4.97;;;3.17;;
80707;SDS011;70222;49.204;-122.940;2023-07-31T13:27:26;4.07;;;2.60;;
80707;SDS011;70222;49.204;-122.940;2023-07-31T13:29:52;5.20;;;2.78;;
80707;SDS011;70222;49.204;-122.940;2023-07-31T13:32:19;6.00;;;2.97;;
80707;SDS011;70222;49.204;-122.940;2023-07-31T13:34:45;4.22;;;2.78;;
80707;SDS011;70222;49.204;-122.940;2023-07-31T13:37:12;4.13;;;2.60;;
80707;SDS011;70222;49.204;-122.940;2023-07-31T13:39:38;3.58;;;2.30;;
80707;SDS011;70222;49.204;-122.940;2023-07-31T13:42:05;4.32;;;2.80;;
80707;SDS011;70222;49.204;-122.940;2023-07-31T13:44:33;4.20;;;2.42;;
80707;SDS011;70222;49.204;-122.940;2023-07-31T13:47:00;4.40;;;2.70;;
80707;SDS011;70222;49.204;-122.940;2023-07-31T13:49:27;3.72;;;2.30;;
80707;SDS011;70222;49.204;-122.940;2023-07-31T13:51:53;3.65;;;2.38;;
80707;SDS011;70222;49.204;-122.940;2023-07-31T13:54:19;7.32;;;2.88;;
80707;SDS011;70222;49.204;-122.940;2023-07-31T13:56:45;4.25;;;2.30;;
80707;SDS011;70222;49.204;-122.940;2023-07-31T13:59:11;3.67;;;2.03;;
80707;SDS011;70222;49.204;-122.940;2023-07-31T14:01:38;3.97;;;2.00;;
80707;SDS011;70222;49.204;-122.940;2023-07-31T14:04:04;4.93;;;2.45;;
80707;SDS011;70222;49.204;-122.940;2023-07-31T14:06:31;4.75;;;2.28;;
80707;SDS011;70222;49.204;-122.940;2023-07-31T14:08:57;4.30;;;2.33;;
80707;SDS011;70222;49.204;-122.940;2023-07-31T14:11:23;4.10;;;2.40;;
80707;SDS011;70222;49.204;-122.940;2023-07-31T14:13:50;4.65;;;2.30;;
80707;SDS011;70222;49.204;-122.940;2023-07-31T14:18:42;7.35;;;2.70;;
80707;SDS011;70222;49.204;-122.940;2023-07-31T14:21:10;5.13;;;2.58;;
80707;SDS011;70222;49.204;-122.940;2023-07-31T14:23:37;4.72;;;2.58;;
80707;SDS011;70222;49.204;-122.940;2023-07-31T14:26:03;4.20;;;2.10;;
80707;SDS011;70222;49.204;-122.940;2023-07-31T14:28:29;8.07;;;2.83;;
80707;SDS011;70222;49.204;-122.940;2023-07-31T14:30:55;4.50;;;2.00;;
80707;SDS011;70222;49.204;-122.940;2023-07-31T14:33:21;4.28;;;2.20;;
80707;SDS011;70222;49.204;-122.940;2023-07-31T14:35:47;5.88;;;2.53;;
80707;SDS011;70222;49.204;-122.940;2023-07-31T14:38:13;4.72;;;2.95;;
80707;SDS011;70222;49.204;-122.940;2023-07-31T14:40:40;8.43;;;3.40;;
80707;SDS011;70222;49.204;-122.940;2023-07-31T14:43:06;3.63;;;1.90;;
80707;SDS011;70222;49.204;-122.940;2023-07-31T14:45:32;3.88;;;2.15;;
80707;SDS011;70222;49.204;-122.940;2023-07-31T14:47:58;4.07;;;2.40;;
80707;SDS011;70222;49.204;-122.940;2023-07-31T14:50:25;6.22;;;2.30;;
80707;SDS011;70222;49.204;-122.940;2023-07-31T14:52:51;3.80;;;2.22;;
80707;SDS011;70222;49.204;-122.940;2023-07-31T14:55:17;3.78;;;2.15;;
80707;SDS011;70222;49.204;-122.940;2023-07-31T14:57:44;4.07;;;2.10;;
80707;SDS011;70222;49.204;-122.940;2023-07-31T15:00:10;7.15;;;2.45;;
80707;SDS011;70222;49.204;-122.940;2023-07-31T15:02:37;4.00;;;2.20;;
80707;SDS011;70222;49.204;-122.940;2023-07-31T15:05:03;4.07;;;2.15;;
80707;SDS011;70222;49.204;-122.940;2023-07-31T15:07:30;4.15;;;2.40;;